x

Buoy B01 - Western Maine Shelf (44030) Wave Buoy

8:04pm - Fri 24th Feb 2017 All times are EST. -5 hours from GMT.

  • Sig Wave height 4.6ft
  • Peak Period 11s
  • Wind
    20mph, 22mph gusts
  • Sea Temp 40°f
  • Air Temp 47°f
  • Sea Pressure 1010.3mb
  • Buoy B01 - Western Maine Shelf
  • Buoy B01 - Western Maine Shelf

More Historic Weather Station data

Upgrade to MSW Pro to gain access to the past 30 days of data for over 8000 Wavebouys and Weather Stations around the globe.

Join Pro

Comparision Forecast

View Surf forecast
   
Fri 02/24 8:04pm 4.5ft 11s 20 22 mph 1010.3mb 40f 47f
7:04pm 3.5ft 5s 18 22 mph 1010.4mb 40f 47f
6:04pm 4.5ft 4s 20 22 mph 1010.1mb 40f 47f
5:04pm 3.5ft 11s 9 11 mph 1010.1mb 41f 46f
4:04pm 3.5ft 11s 2 4 mph 1010.2mb 41f 47f
3:04pm 3.5ft 11s  -  2 mph 1010.6mb 41f 48f
2:04pm 4ft 11s 4 7 mph 1011.1mb 40f 44f
1:04pm 4.5ft 11s 2 4 mph 1012mb 41f 44f
12:04pm 3.5ft 11s 7
mph
1012.5mb 41f 44f
11:04am 3.5ft 11s 9 11 mph 1012.8mb 40f 44f
10:04am 3.5ft 11s 2 4 mph 1013.1mb 40f 44f
9:04am 3.5ft 11s 7 9 mph 1013mb 40f 44f
8:04am 3.5ft 11s 9
mph
1013mb 40f 42f
7:04am 4ft 11s 9
mph
1012.5mb 40f 42f
6:04am 3.5ft 11s 7 9 mph 1012.3mb 40f 42f
5:04am 4.5ft 11s 4 7 mph 1012mb 40f 42f
4:04am 4.5ft 11s 9 11 mph 1011.5mb 40f 42f
3:04am 4.5ft 11s 9 11 mph 1011.1mb 40f 43f
12:04am 4.5ft 11s 9 11 mph 1010mb 39f 43f
Thu 02/23 11:04pm 5ft 11s 16
mph
1009.3mb 40f 44f
10:04pm 5ft 11s 16 18 mph 1008.6mb 40f 45f
9:04pm 5ft 11s 16 18 mph 1008.2mb 40f 45f
8:04pm 3ft 5s 13 16 mph 1007.6mb 40f 45f
7:04pm 5ft 11s 18 20 mph 1006.8mb 40f 46f
6:04pm 5ft 11s 13 18 mph 1006.5mb 40f 45f
5:04pm 5ft 11s 16 18 mph 1005.6mb 40f 46f
4:04pm 4ft 11s 20 22 mph 1004.7mb 40f 47f
3:04pm 4ft 11s 13 18 mph 1006mb 41f 44f
2:04pm 4ft 11s 11
mph
1006.7mb 41f 44f
1:04pm 3.5ft 11s 13
mph
1007.8mb 41f 42f
12:04pm 3ft 11s 9 11 mph 1008.7mb 41f 42f
11:04am 2.5ft 11s 9 11 mph 1009.6mb 41f 42f
10:04am 2.5ft 11s 9
mph
1010.3mb 41f 40f
9:04am 3ft 8s 2
mph
1010.9mb 41f 43f
8:04am 2.5ft 11s 7
mph
1010.9mb 41f 38f
7:04am 3ft 11s 4 7 mph 1011mb 40f 38f
6:04am 3ft 11s 4
mph
1010.8mb 40f 37f
5:04am 3.5ft 11s 2 4 mph 1010.8mb 40f 40f
Wed 02/22 5:04am 3.5ft 5s 16 18 mph 1016.1mb 40f 38f
4:04am 4ft 5s 16 20 mph 1016.1mb 40f 38f
3:04am 3.5ft 5s 18 20 mph 1016.4mb 40f 39f
2:04am 4ft 5s 20 25 mph 1016.9mb 41f 39f
1:04am 4.5ft 5s 20 22 mph 1017.7mb 41f 39f
12:04am 4.5ft 5s 20 25 mph 1018.2mb 41f 40f
Tue 02/21 11:04pm 4ft 5s 18 20 mph 1019mb 41f 40f
10:04pm 4.5ft 5s 20 22 mph 1019.8mb 41f 40f
9:04pm 3.5ft 4s 20 25 mph 1020.8mb 41f 39f
8:04pm 3ft 3s 18 22 mph 1021mb 41f 39f
7:04pm 2.5ft 6s 16 18 mph 1022.3mb 41f 38f
6:04pm 2.5ft 5s 13 18 mph 1022.6mb 41f 38f
5:04pm 2.5ft 6s 13 18 mph 1023mb 41f 37f
4:04pm 2.5ft 6s 13 18 mph 1023.4mb 41f 37f
3:04pm 3ft 6s 11 13 mph 1024.4mb 41f 36f
2:04pm 2.5ft 5s 9 11 mph 1025.3mb 42f 35f
1:04pm 3.5ft 6s 4 7 mph 1026.2mb 41f 35f
12:04pm 3.5ft 6s 4 7 mph 1026.7mb 41f 34f
11:04am 3ft 6s 4 7 mph 1027.6mb 40f 34f
10:04am 3.5ft 6s 2 4 mph 1028.5mb 40f 36f
9:04am 3.5ft 5s 7 9 mph 1028.3mb 40f 34f
8:04am 3ft 5s 7 11 mph 1028.7mb 40f 35f
7:04am 2.5ft 5s 11
mph
1028.4mb 40f 34f
6:04am 2.5ft 5s 13 16 mph 1028mb 40f 34f
5:04am 3ft 5s 13 18 mph 1027.9mb 40f 35f